WetterOnline ( http://www.wetteronline.de )

Wetter aktuell Beeskow

Aktuelles Wetter: Lindenberg b. Beeskow (104m)

6-stündlich | Neueste Meldungen
Ortszeit Temperatur Wetter
Di, 25.09. 20:00 8.1° C fast wolkenlos
Di, 25.09. 14:00 12.7° C wolkig
Di, 25.09. 8:00 5.1° C wolkenlos
Di, 25.09. 2:00 6.1° C fast wolkenlos
Mo, 24.09. 20:00 7.4° C leicht bewölkt
Mo, 24.09. 14:00 12.5° C leicht bewölkt
Mo, 24.09. 8:00 7.8° C leicht bewölkt
Mo, 24.09. 2:00 8.8° C bedeckt
Ortszeit Temperatur Wetter
Mi, 26.09. 0:00 5.8° C leicht bewölkt
Di, 25.09. 23:50 5.8° C leicht bewölkt
Di, 25.09. 23:40 6.3° C wolkig
Di, 25.09. 23:30 6.6° C leicht bewölkt
Di, 25.09. 23:20 6.6° C wolkig
Di, 25.09. 23:10 6.4° C wolkig
Di, 25.09. 23:00 6.1° C leicht bewölkt
Di, 25.09. 22:30 6.3° C wolkenlos
Di, 25.09. 22:00 6.8° C wolkenlos
Di, 25.09. 21:30 6.8° C wolkenlos
Di, 25.09. 21:00 7.3° C fast wolkenlos
Ortszeit Relative Feuchte Sichtweite
Di, 25.09. 20:00 71% 50 km
Di, 25.09. 14:00 49% 40 km
Di, 25.09. 8:00 89% 40 km
Di, 25.09. 2:00 85% 45 km
Mo, 24.09. 20:00 91% 40 km
Mo, 24.09. 14:00 52% 30 km
Mo, 24.09. 8:00 84% 30 km
Mo, 24.09. 2:00 91% 40 km
Ortszeit Relative Feuchte Sichtweite
Mi, 26.09. 0:00 76% 40 km
Di, 25.09. 23:50 76% -
Di, 25.09. 23:40 72% -
Di, 25.09. 23:30 72% 40 km
Di, 25.09. 23:20 72% -
Di, 25.09. 23:10 73% -
Di, 25.09. 23:00 76% 40 km
Di, 25.09. 22:30 76% 40 km
Di, 25.09. 22:00 72% 50 km
Di, 25.09. 21:30 79% 50 km
Di, 25.09. 21:00 76% 50 km
Ortszeit Niederschlagsmenge Niederschlagsart
Di, 25.09. 20:00 0.0 l/m2 in 12 Std. -
Di, 25.09. 14:00 0.0 l/m2 in 6 Std. -
Di, 25.09. 8:00 1 l/m2 in 12 Std. -
Di, 25.09. 2:00 1 l/m2 in 6 Std. Schauer
Mo, 24.09. 20:00 9 l/m2 in 12 Std. Gewitter, Schauer
Mo, 24.09. 14:00 0.1 l/m2 in 6 Std. Regenschauer
Mo, 24.09. 8:00 4 l/m2 in 12 Std. -
Mo, 24.09. 2:00 4 l/m2 in 6 Std. Regen
Ortszeit Niederschlagsmenge Niederschlagsart
Mi, 26.09. 0:00 0.0 l/m2 in 1 Std. -
Di, 25.09. 23:50 keine Meldung -
Di, 25.09. 23:40 keine Meldung -
Di, 25.09. 23:30 0.0 l/m2 in 1 Std. -
Di, 25.09. 23:20 keine Meldung -
Di, 25.09. 23:10 keine Meldung -
Di, 25.09. 23:00 0.0 l/m2 in 1 Std. -
Di, 25.09. 22:30 0.0 l/m2 in 1 Std. -
Di, 25.09. 22:00 0.0 l/m2 in 1 Std. -
Di, 25.09. 21:30 0.0 l/m2 in 1 Std. -
Di, 25.09. 21:00 0.0 l/m2 in 1 Std. -
Ortszeit Stärke Spitze Richtung
km/h Bft. km/h Grad Sektor
Di, 25.09. 20:00 7 2 32 290° W
Di, 25.09. 14:00 17 3 37 290° W
Di, 25.09. 8:00 17 3 33 280° W
Di, 25.09. 2:00 14 3 36 290° W
Mo, 24.09. 20:00 9 2 65 310° NW
Mo, 24.09. 14:00 28 4 59 280° W
Mo, 24.09. 8:00 24 4 48 280° W
Mo, 24.09. 2:00 19 3 37 280° W
Ortszeit Stärke Spitze Richtung
km/h Bft. km/h Grad Sektor
Mi, 26.09. 0:00 7 2 14 240° SW
Di, 25.09. 23:50 7 2 - 240° SW
Di, 25.09. 23:40 7 2 - 250° W
Di, 25.09. 23:30 9 2 13 250° W
Di, 25.09. 23:20 9 2 - 250° W
Di, 25.09. 23:10 9 2 - 250° W
Di, 25.09. 23:00 7 2 11 230° SW
Di, 25.09. 22:30 7 2 11 230° SW
Di, 25.09. 22:00 7 2 11 260° W
Di, 25.09. 21:30 7 2 11 260° W
Di, 25.09. 21:00 9 2 13 280° W
Ortszeit Untergrenze Bedeckung Gattung
total tief tief mittel hoch
Di, 25.09. 20:00 9000 m 1/8 0/8 - - Ci
Di, 25.09. 14:00 1290 m 5/8 5/8 Cu - -
Di, 25.09. 8:00 - 0/8 0/8 - - -
Di, 25.09. 2:00 1800 m 1/8 1/8 Sc - -
Mo, 24.09. 20:00 3000 m 5/8 2/8 Cb Ac -
Mo, 24.09. 14:00 1170 m 4/8 4/8 Cb Ac -
Mo, 24.09. 8:00 420 m 3/8 3/8 Cu - -
Mo, 24.09. 2:00 390 m 8/8 7/8 Sc - -
Ortszeit Bedeckungsgrad in Achtel und Wolkenuntergrenze
Mi, 26.09. 0:00 2(9000m)
Di, 25.09. 23:50 6(9000m)
Di, 25.09. 23:40 1(9000m) 7(9000m)
Di, 25.09. 23:30 4(8700m) 4(9000m) 7(9000m)
Di, 25.09. 23:20 4(8700m) 6(9000m) 7(10500m)
Di, 25.09. 23:10 7(8700m) 8(9000m)
Di, 25.09. 23:00 3(8700m) 8(10500m)
Di, 25.09. 22:30 4(9000m) 6(9000m) 8(10500m)
Di, 25.09. 22:00 5(9000m)
Di, 25.09. 21:30 keine Wolken
Di, 25.09. 21:00 1(9000m)
Ortszeit Luftdruck NN (hPa) Tendenz (hPa in 3 Std.)
Di, 25.09. 20:00 1038 + 1,0
Di, 25.09. 14:00 1037 + 0,8
Di, 25.09. 8:00 1034 + 1,9
Di, 25.09. 2:00 1031 + 1,7
Mo, 24.09. 20:00 1027 + 1,4
Mo, 24.09. 14:00 1024 + 1,4
Mo, 24.09. 8:00 1019 + 2,2
Mo, 24.09. 2:00 1013 + 4,0
Ortszeit Luftdruck NN (hPa) Tendenz (hPa in 3 Std.)
Mi, 26.09. 0:00 1039 + 0,2
Di, 25.09. 23:50 1039 keine Meldung
Di, 25.09. 23:40 1038 keine Meldung
Di, 25.09. 23:30 1039 + 0,4
Di, 25.09. 23:20 1039 keine Meldung
Di, 25.09. 23:10 1039 keine Meldung
Di, 25.09. 23:00 1038 + 0,5
Di, 25.09. 22:30 1038 + 0,7
Di, 25.09. 22:00 1038 + 0,7
Di, 25.09. 21:30 1038 + 0,9
Di, 25.09. 21:00 1038 + 1,1
Ortszeit Schneehöhe (cm)
Di, 25.09. 20:00 0
Di, 25.09. 14:00 0
Di, 25.09. 8:00 0
Di, 25.09. 2:00 0
Mo, 24.09. 20:00 0
Mo, 24.09. 14:00 0
Mo, 24.09. 8:00 0
Mo, 24.09. 2:00 0
Ortszeit Schneehöhe (cm)
Mi, 26.09. 0:00 -
Di, 25.09. 23:50 -
Di, 25.09. 23:40 -
Di, 25.09. 23:30 -
Di, 25.09. 23:20 -
Di, 25.09. 23:10 -
Di, 25.09. 23:00 -
Di, 25.09. 22:30 -
Di, 25.09. 22:00 -
Di, 25.09. 21:30 -
Di, 25.09. 21:00 -
Link zu dieser Seite / Seite empfehlen

Das Wetter in ...